sensor_id;sensor_type;location;lat;lon;timestamp;P1;durP1;ratioP1;P2;durP2;ratioP2
11481;SDS011;5797;51.662;6.748;2023-12-07T00:00:46;22.00;;;10.57;;
11481;SDS011;5797;51.662;6.748;2023-12-07T00:03:13;21.63;;;10.37;;
11481;SDS011;5797;51.662;6.748;2023-12-07T00:05:42;15.50;;;9.10;;
11481;SDS011;5797;51.662;6.748;2023-12-07T00:08:11;15.90;;;10.17;;
11481;SDS011;5797;51.662;6.748;2023-12-07T00:10:39;19.83;;;9.53;;
11481;SDS011;5797;51.662;6.748;2023-12-07T00:13:07;18.23;;;10.60;;
11481;SDS011;5797;51.662;6.748;2023-12-07T00:15:36;19.60;;;9.90;;
11481;SDS011;5797;51.662;6.748;2023-12-07T00:18:06;16.23;;;9.60;;
11481;SDS011;5797;51.662;6.748;2023-12-07T00:20:34;17.80;;;10.07;;
11481;SDS011;5797;51.662;6.748;2023-12-07T00:23:03;17.37;;;9.93;;
11481;SDS011;5797;51.662;6.748;2023-12-07T00:25:31;16.60;;;10.30;;
11481;SDS011;5797;51.662;6.748;2023-12-07T00:28:01;17.87;;;10.03;;
11481;SDS011;5797;51.662;6.748;2023-12-07T00:30:30;18.13;;;9.93;;
11481;SDS011;5797;51.662;6.748;2023-12-07T00:33:00;16.73;;;10.00;;
11481;SDS011;5797;51.662;6.748;2023-12-07T00:35:30;25.23;;;11.27;;
11481;SDS011;5797;51.662;6.748;2023-12-07T00:37:58;19.97;;;11.03;;
11481;SDS011;5797;51.662;6.748;2023-12-07T00:40:27;20.27;;;10.87;;
11481;SDS011;5797;51.662;6.748;2023-12-07T00:42:55;19.87;;;11.43;;
11481;SDS011;5797;51.662;6.748;2023-12-07T00:45:25;21.17;;;10.73;;
11481;SDS011;5797;51.662;6.748;2023-12-07T00:47:54;20.23;;;11.03;;
11481;SDS011;5797;51.662;6.748;2023-12-07T00:50:22;21.10;;;11.53;;
11481;SDS011;5797;51.662;6.748;2023-12-07T00:52:52;20.90;;;10.20;;
11481;SDS011;5797;51.662;6.748;2023-12-07T00:55:21;19.40;;;11.37;;
11481;SDS011;5797;51.662;6.748;2023-12-07T00:57:50;17.67;;;9.67;;
11481;SDS011;5797;51.662;6.748;2023-12-07T01:00:18;16.30;;;10.23;;
11481;SDS011;5797;51.662;6.748;2023-12-07T01:02:47;22.10;;;11.07;;
11481;SDS011;5797;51.662;6.748;2023-12-07T01:05:15;19.13;;;10.50;;
11481;SDS011;5797;51.662;6.748;2023-12-07T01:07:44;20.70;;;10.67;;
11481;SDS011;5797;51.662;6.748;2023-12-07T01:10:14;21.27;;;10.60;;
11481;SDS011;5797;51.662;6.748;2023-12-07T01:12:42;17.53;;;10.87;;
11481;SDS011;5797;51.662;6.748;2023-12-07T01:15:11;16.20;;;10.70;;
11481;SDS011;5797;51.662;6.748;2023-12-07T01:17:39;21.60;;;10.97;;
11481;SDS011;5797;51.662;6.748;2023-12-07T01:20:08;17.80;;;10.27;;
11481;SDS011;5797;51.662;6.748;2023-12-07T01:22:40;15.73;;;10.27;;
11481;SDS011;5797;51.662;6.748;2023-12-07T01:25:09;18.50;;;10.03;;
11481;SDS011;5797;51.662;6.748;2023-12-07T01:27:39;15.40;;;9.80;;
11481;SDS011;5797;51.662;6.748;2023-12-07T01:30:07;16.17;;;9.83;;
11481;SDS011;5797;51.662;6.748;2023-12-07T01:32:36;18.40;;;10.07;;
11481;SDS011;5797;51.662;6.748;2023-12-07T01:35:05;17.17;;;9.57;;
11481;SDS011;5797;51.662;6.748;2023-12-07T01:37:34;15.63;;;10.03;;
11481;SDS011;5797;51.662;6.748;2023-12-07T01:40:03;15.77;;;9.20;;
11481;SDS011;5797;51.662;6.748;2023-12-07T01:42:38;16.13;;;9.77;;
11481;SDS011;5797;51.662;6.748;2023-12-07T01:45:07;13.40;;;8.93;;
11481;SDS011;5797;51.662;6.748;2023-12-07T01:47:36;13.43;;;8.03;;
11481;SDS011;5797;51.662;6.748;2023-12-07T01:50:05;12.17;;;8.57;;
11481;SDS011;5797;51.662;6.748;2023-12-07T01:52:35;15.53;;;8.37;;
11481;SDS011;5797;51.662;6.748;2023-12-07T01:55:05;12.47;;;8.23;;
11481;SDS011;5797;51.662;6.748;2023-12-07T01:57:34;12.90;;;7.93;;
11481;SDS011;5797;51.662;6.748;2023-12-07T02:00:05;13.07;;;7.80;;
11481;SDS011;5797;51.662;6.748;2023-12-07T02:02:34;14.20;;;9.13;;
11481;SDS011;5797;51.662;6.748;2023-12-07T02:05:03;14.33;;;8.30;;
11481;SDS011;5797;51.662;6.748;2023-12-07T02:07:32;14.03;;;8.27;;
11481;SDS011;5797;51.662;6.748;2023-12-07T02:10:02;14.63;;;8.70;;
11481;SDS011;5797;51.662;6.748;2023-12-07T02:12:32;12.70;;;8.27;;
11481;SDS011;5797;51.662;6.748;2023-12-07T02:15:01;13.77;;;8.37;;
11481;SDS011;5797;51.662;6.748;2023-12-07T02:17:33;13.77;;;8.90;;
11481;SDS011;5797;51.662;6.748;2023-12-07T02:20:05;13.23;;;8.27;;
11481;SDS011;5797;51.662;6.748;2023-12-07T02:22:39;14.80;;;9.17;;
11481;SDS011;5797;51.662;6.748;2023-12-07T02:25:15;13.00;;;8.83;;
11481;SDS011;5797;51.662;6.748;2023-12-07T02:27:48;15.57;;;10.10;;
11481;SDS011;5797;51.662;6.748;2023-12-07T02:30:16;18.33;;;10.30;;
11481;SDS011;5797;51.662;6.748;2023-12-07T02:32:44;16.00;;;9.80;;
11481;SDS011;5797;51.662;6.748;2023-12-07T02:35:13;17.33;;;10.10;;
11481;SDS011;5797;51.662;6.748;2023-12-07T02:37:43;18.87;;;9.87;;
11481;SDS011;5797;51.662;6.748;2023-12-07T02:40:14;23.97;;;8.80;;
11481;SDS011;5797;51.662;6.748;2023-12-07T02:42:45;15.17;;;9.07;;
11481;SDS011;5797;51.662;6.748;2023-12-07T02:45:15;40.00;;;10.53;;
11481;SDS011;5797;51.662;6.748;2023-12-07T02:47:44;50.17;;;10.63;;
11481;SDS011;5797;51.662;6.748;2023-12-07T02:50:13;14.23;;;9.03;;
11481;SDS011;5797;51.662;6.748;2023-12-07T02:52:41;18.40;;;10.23;;
11481;SDS011;5797;51.662;6.748;2023-12-07T02:55:10;18.10;;;9.87;;
11481;SDS011;5797;51.662;6.748;2023-12-07T02:57:38;17.40;;;10.00;;
11481;SDS011;5797;51.662;6.748;2023-12-07T03:00:07;24.93;;;9.63;;
11481;SDS011;5797;51.662;6.748;2023-12-07T03:02:40;18.30;;;9.60;;
11481;SDS011;5797;51.662;6.748;2023-12-07T03:05:09;18.83;;;9.40;;
11481;SDS011;5797;51.662;6.748;2023-12-07T03:07:37;13.23;;;8.73;;
11481;SDS011;5797;51.662;6.748;2023-12-07T03:10:06;12.97;;;8.50;;
11481;SDS011;5797;51.662;6.748;2023-12-07T03:12:35;12.50;;;8.47;;
11481;SDS011;5797;51.662;6.748;2023-12-07T03:15:04;12.67;;;8.03;;
11481;SDS011;5797;51.662;6.748;2023-12-07T03:17:33;15.53;;;9.97;;
11481;SDS011;5797;51.662;6.748;2023-12-07T03:20:04;24.40;;;9.20;;
11481;SDS011;5797;51.662;6.748;2023-12-07T03:22:33;16.50;;;9.23;;
11481;SDS011;5797;51.662;6.748;2023-12-07T03:25:02;14.77;;;9.47;;
11481;SDS011;5797;51.662;6.748;2023-12-07T03:27:31;14.60;;;9.77;;
11481;SDS011;5797;51.662;6.748;2023-12-07T03:29:59;16.83;;;8.60;;
11481;SDS011;5797;51.662;6.748;2023-12-07T03:32:27;18.07;;;9.33;;
11481;SDS011;5797;51.662;6.748;2023-12-07T03:34:56;14.33;;;8.80;;
11481;SDS011;5797;51.662;6.748;2023-12-07T03:37:26;15.87;;;9.00;;
11481;SDS011;5797;51.662;6.748;2023-12-07T03:39:54;13.50;;;8.83;;
11481;SDS011;5797;51.662;6.748;2023-12-07T03:42:23;18.17;;;9.63;;
11481;SDS011;5797;51.662;6.748;2023-12-07T03:45:11;13.10;;;8.83;;
11481;SDS011;5797;51.662;6.748;2023-12-07T03:47:40;16.70;;;9.83;;
11481;SDS011;5797;51.662;6.748;2023-12-07T03:50:08;18.33;;;10.10;;
11481;SDS011;5797;51.662;6.748;2023-12-07T03:52:38;17.77;;;9.93;;
11481;SDS011;5797;51.662;6.748;2023-12-07T03:55:07;16.73;;;10.20;;
11481;SDS011;5797;51.662;6.748;2023-12-07T03:57:37;15.17;;;9.10;;
11481;SDS011;5797;51.662;6.748;2023-12-07T04:00:06;17.90;;;9.93;;
11481;SDS011;5797;51.662;6.748;2023-12-07T04:02:35;18.33;;;10.60;;
11481;SDS011;5797;51.662;6.748;2023-12-07T04:05:04;19.40;;;10.83;;
11481;SDS011;5797;51.662;6.748;2023-12-07T04:07:33;23.83;;;10.17;;
11481;SDS011;5797;51.662;6.748;2023-12-07T04:10:03;22.60;;;12.33;;
11481;SDS011;5797;51.662;6.748;2023-12-07T04:12:33;40.17;;;15.47;;
11481;SDS011;5797;51.662;6.748;2023-12-07T04:15:01;38.23;;;17.77;;
11481;SDS011;5797;51.662;6.748;2023-12-07T04:17:30;39.27;;;16.00;;
11481;SDS011;5797;51.662;6.748;2023-12-07T04:19:58;30.43;;;12.67;;
11481;SDS011;5797;51.662;6.748;2023-12-07T04:22:27;38.67;;;15.07;;
11481;SDS011;5797;51.662;6.748;2023-12-07T04:24:56;30.63;;;11.77;;
11481;SDS011;5797;51.662;6.748;2023-12-07T04:27:25;27.33;;;11.47;;
11481;SDS011;5797;51.662;6.748;2023-12-07T04:29:54;36.97;;;11.67;;
11481;SDS011;5797;51.662;6.748;2023-12-07T04:32:22;25.83;;;11.87;;
11481;SDS011;5797;51.662;6.748;2023-12-07T04:34:51;40.93;;;12.97;;
11481;SDS011;5797;51.662;6.748;2023-12-07T04:37:19;28.77;;;12.60;;
11481;SDS011;5797;51.662;6.748;2023-12-07T04:39:47;26.73;;;12.73;;
11481;SDS011;5797;51.662;6.748;2023-12-07T04:42:16;28.77;;;12.87;;
11481;SDS011;5797;51.662;6.748;2023-12-07T04:44:46;30.37;;;12.87;;
11481;SDS011;5797;51.662;6.748;2023-12-07T04:47:14;33.27;;;12.73;;
11481;SDS011;5797;51.662;6.748;2023-12-07T04:49:43;43.07;;;14.80;;
11481;SDS011;5797;51.662;6.748;2023-12-07T04:52:11;37.23;;;14.97;;
11481;SDS011;5797;51.662;6.748;2023-12-07T04:54:40;42.47;;;13.33;;
11481;SDS011;5797;51.662;6.748;2023-12-07T04:57:08;38.10;;;15.87;;
11481;SDS011;5797;51.662;6.748;2023-12-07T04:59:37;43.20;;;14.90;;
11481;SDS011;5797;51.662;6.748;2023-12-07T05:02:08;48.80;;;16.10;;
11481;SDS011;5797;51.662;6.748;2023-12-07T05:04:36;41.83;;;15.67;;
11481;SDS011;5797;51.662;6.748;2023-12-07T05:07:05;45.70;;;16.20;;
11481;SDS011;5797;51.662;6.748;2023-12-07T05:09:33;46.87;;;15.90;;
11481;SDS011;5797;51.662;6.748;2023-12-07T05:12:02;45.57;;;15.33;;
11481;SDS011;5797;51.662;6.748;2023-12-07T05:14:30;52.83;;;16.27;;
11481;SDS011;5797;51.662;6.748;2023-12-07T05:16:59;45.17;;;16.47;;
11481;SDS011;5797;51.662;6.748;2023-12-07T05:19:29;39.77;;;16.70;;
11481;SDS011;5797;51.662;6.748;2023-12-07T05:21:57;42.13;;;18.57;;
11481;SDS011;5797;51.662;6.748;2023-12-07T05:24:26;45.50;;;17.37;;
11481;SDS011;5797;51.662;6.748;2023-12-07T05:26:54;50.90;;;18.30;;
11481;SDS011;5797;51.662;6.748;2023-12-07T05:29:22;49.70;;;17.67;;
11481;SDS011;5797;51.662;6.748;2023-12-07T05:31:51;64.17;;;17.63;;
11481;SDS011;5797;51.662;6.748;2023-12-07T05:34:19;58.63;;;18.60;;
11481;SDS011;5797;51.662;6.748;2023-12-07T05:36:49;58.47;;;18.63;;
11481;SDS011;5797;51.662;6.748;2023-12-07T05:39:17;60.73;;;17.37;;
11481;SDS011;5797;51.662;6.748;2023-12-07T05:41:46;52.77;;;19.13;;
11481;SDS011;5797;51.662;6.748;2023-12-07T05:44:14;58.17;;;18.40;;
11481;SDS011;5797;51.662;6.748;2023-12-07T05:46:48;51.80;;;18.20;;
11481;SDS011;5797;51.662;6.748;2023-12-07T05:49:17;47.67;;;17.43;;
11481;SDS011;5797;51.662;6.748;2023-12-07T05:51:45;58.83;;;18.40;;
11481;SDS011;5797;51.662;6.748;2023-12-07T05:54:15;45.57;;;18.03;;
11481;SDS011;5797;51.662;6.748;2023-12-07T05:56:43;58.93;;;19.17;;
11481;SDS011;5797;51.662;6.748;2023-12-07T05:59:13;47.43;;;18.33;;
11481;SDS011;5797;51.662;6.748;2023-12-07T06:01:41;56.37;;;21.03;;
11481;SDS011;5797;51.662;6.748;2023-12-07T06:04:11;59.23;;;21.20;;
11481;SDS011;5797;51.662;6.748;2023-12-07T06:06:40;63.87;;;21.13;;
11481;SDS011;5797;51.662;6.748;2023-12-07T06:09:08;50.20;;;23.00;;
11481;SDS011;5797;51.662;6.748;2023-12-07T06:11:39;63.93;;;24.53;;
11481;SDS011;5797;51.662;6.748;2023-12-07T06:14:07;58.17;;;23.27;;
11481;SDS011;5797;51.662;6.748;2023-12-07T06:16:36;66.97;;;22.37;;
11481;SDS011;5797;51.662;6.748;2023-12-07T06:19:04;65.13;;;23.67;;
11481;SDS011;5797;51.662;6.748;2023-12-07T06:21:33;77.30;;;24.03;;
11481;SDS011;5797;51.662;6.748;2023-12-07T06:24:01;57.20;;;23.30;;
11481;SDS011;5797;51.662;6.748;2023-12-07T06:26:30;62.57;;;24.03;;
11481;SDS011;5797;51.662;6.748;2023-12-07T06:28:59;53.37;;;23.40;;
11481;SDS011;5797;51.662;6.748;2023-12-07T06:31:28;59.57;;;23.00;;
11481;SDS011;5797;51.662;6.748;2023-12-07T06:33:56;62.53;;;23.03;;
11481;SDS011;5797;51.662;6.748;2023-12-07T06:36:27;54.10;;;23.20;;
11481;SDS011;5797;51.662;6.748;2023-12-07T06:38:55;60.67;;;23.67;;
11481;SDS011;5797;51.662;6.748;2023-12-07T06:41:25;63.30;;;23.10;;
11481;SDS011;5797;51.662;6.748;2023-12-07T06:43:53;59.40;;;22.17;;
11481;SDS011;5797;51.662;6.748;2023-12-07T06:46:24;72.53;;;24.30;;
11481;SDS011;5797;51.662;6.748;2023-12-07T06:48:53;68.63;;;22.83;;
11481;SDS011;5797;51.662;6.748;2023-12-07T06:51:21;70.87;;;23.60;;
11481;SDS011;5797;51.662;6.748;2023-12-07T06:53:50;61.20;;;23.97;;
11481;SDS011;5797;51.662;6.748;2023-12-07T06:56:18;58.60;;;23.13;;
11481;SDS011;5797;51.662;6.748;2023-12-07T06:58:46;62.63;;;24.17;;
11481;SDS011;5797;51.662;6.748;2023-12-07T07:01:15;62.97;;;22.60;;
11481;SDS011;5797;51.662;6.748;2023-12-07T07:03:45;58.13;;;21.70;;
11481;SDS011;5797;51.662;6.748;2023-12-07T07:06:13;61.47;;;25.07;;
11481;SDS011;5797;51.662;6.748;2023-12-07T07:08:41;66.53;;;24.17;;
11481;SDS011;5797;51.662;6.748;2023-12-07T07:11:11;69.60;;;25.43;;
11481;SDS011;5797;51.662;6.748;2023-12-07T07:13:41;70.03;;;25.43;;
11481;SDS011;5797;51.662;6.748;2023-12-07T07:16:09;67.20;;;23.53;;
11481;SDS011;5797;51.662;6.748;2023-12-07T07:18:38;63.73;;;23.30;;
11481;SDS011;5797;51.662;6.748;2023-12-07T07:21:08;66.37;;;23.83;;
11481;SDS011;5797;51.662;6.748;2023-12-07T07:23:37;63.87;;;22.83;;
11481;SDS011;5797;51.662;6.748;2023-12-07T07:26:05;71.27;;;24.17;;
11481;SDS011;5797;51.662;6.748;2023-12-07T07:28:35;59.70;;;21.20;;
11481;SDS011;5797;51.662;6.748;2023-12-07T07:31:03;84.60;;;24.73;;
11481;SDS011;5797;51.662;6.748;2023-12-07T07:33:32;101.17;;;24.20;;
11481;SDS011;5797;51.662;6.748;2023-12-07T07:36:01;80.13;;;23.90;;
11481;SDS011;5797;51.662;6.748;2023-12-07T07:38:30;72.90;;;22.27;;
11481;SDS011;5797;51.662;6.748;2023-12-07T07:40:59;61.53;;;22.60;;
11481;SDS011;5797;51.662;6.748;2023-12-07T07:43:27;78.93;;;23.60;;
11481;SDS011;5797;51.662;6.748;2023-12-07T07:45:56;72.90;;;23.40;;
11481;SDS011;5797;51.662;6.748;2023-12-07T07:48:24;88.07;;;23.40;;
11481;SDS011;5797;51.662;6.748;2023-12-07T07:50:53;60.07;;;21.90;;
11481;SDS011;5797;51.662;6.748;2023-12-07T07:53:21;92.80;;;23.07;;
11481;SDS011;5797;51.662;6.748;2023-12-07T07:55:51;50.20;;;20.33;;
11481;SDS011;5797;51.662;6.748;2023-12-07T07:58:19;106.00;;;24.23;;
11481;SDS011;5797;51.662;6.748;2023-12-07T08:00:48;88.40;;;24.50;;
11481;SDS011;5797;51.662;6.748;2023-12-07T08:03:17;72.03;;;21.97;;
11481;SDS011;5797;51.662;6.748;2023-12-07T08:05:45;70.40;;;21.23;;
11481;SDS011;5797;51.662;6.748;2023-12-07T08:08:14;68.83;;;23.20;;
11481;SDS011;5797;51.662;6.748;2023-12-07T08:10:42;92.20;;;24.20;;
11481;SDS011;5797;51.662;6.748;2023-12-07T08:13:17;135.13;;;24.87;;
11481;SDS011;5797;51.662;6.748;2023-12-07T08:15:45;104.07;;;24.90;;
11481;SDS011;5797;51.662;6.748;2023-12-07T08:18:14;72.53;;;22.80;;
11481;SDS011;5797;51.662;6.748;2023-12-07T08:20:42;131.73;;;25.37;;
11481;SDS011;5797;51.662;6.748;2023-12-07T08:23:11;69.30;;;23.87;;
11481;SDS011;5797;51.662;6.748;2023-12-07T08:25:39;92.50;;;25.60;;
11481;SDS011;5797;51.662;6.748;2023-12-07T08:28:09;139.30;;;26.37;;
11481;SDS011;5797;51.662;6.748;2023-12-07T08:30:39;127.30;;;27.93;;
11481;SDS011;5797;51.662;6.748;2023-12-07T08:33:08;124.33;;;26.70;;
11481;SDS011;5797;51.662;6.748;2023-12-07T08:35:36;116.97;;;25.53;;
11481;SDS011;5797;51.662;6.748;2023-12-07T08:38:05;80.50;;;24.43;;
11481;SDS011;5797;51.662;6.748;2023-12-07T08:40:33;116.30;;;24.80;;
11481;SDS011;5797;51.662;6.748;2023-12-07T08:43:02;152.13;;;27.87;;
11481;SDS011;5797;51.662;6.748;2023-12-07T08:45:32;93.20;;;24.23;;
11481;SDS011;5797;51.662;6.748;2023-12-07T08:48:02;79.03;;;25.57;;
11481;SDS011;5797;51.662;6.748;2023-12-07T08:50:31;84.27;;;24.33;;
11481;SDS011;5797;51.662;6.748;2023-12-07T08:52:59;108.90;;;26.37;;
11481;SDS011;5797;51.662;6.748;2023-12-07T08:55:30;102.17;;;27.23;;
11481;SDS011;5797;51.662;6.748;2023-12-07T08:57:59;103.43;;;26.87;;
11481;SDS011;5797;51.662;6.748;2023-12-07T09:00:27;128.30;;;25.50;;
11481;SDS011;5797;51.662;6.748;2023-12-07T09:02:56;101.37;;;24.30;;
11481;SDS011;5797;51.662;6.748;2023-12-07T09:05:26;127.40;;;26.40;;
11481;SDS011;5797;51.662;6.748;2023-12-07T09:07:55;131.43;;;22.67;;
11481;SDS011;5797;51.662;6.748;2023-12-07T09:10:23;116.73;;;24.80;;
11481;SDS011;5797;51.662;6.748;2023-12-07T09:12:52;114.00;;;24.20;;
11481;SDS011;5797;51.662;6.748;2023-12-07T09:15:20;68.63;;;23.00;;
11481;SDS011;5797;51.662;6.748;2023-12-07T09:17:49;113.27;;;24.47;;
11481;SDS011;5797;51.662;6.748;2023-12-07T09:20:18;79.30;;;24.50;;
11481;SDS011;5797;51.662;6.748;2023-12-07T09:22:48;97.87;;;22.47;;
11481;SDS011;5797;51.662;6.748;2023-12-07T09:25:16;87.83;;;24.53;;
11481;SDS011;5797;51.662;6.748;2023-12-07T09:27:45;75.00;;;23.13;;
11481;SDS011;5797;51.662;6.748;2023-12-07T09:30:14;78.23;;;22.17;;
11481;SDS011;5797;51.662;6.748;2023-12-07T09:32:43;85.03;;;22.93;;
11481;SDS011;5797;51.662;6.748;2023-12-07T09:35:12;60.57;;;24.63;;
11481;SDS011;5797;51.662;6.748;2023-12-07T09:37:42;85.80;;;24.63;;
11481;SDS011;5797;51.662;6.748;2023-12-07T09:40:15;85.17;;;27.43;;
11481;SDS011;5797;51.662;6.748;2023-12-07T09:42:45;80.87;;;27.17;;
11481;SDS011;5797;51.662;6.748;2023-12-07T09:45:14;77.93;;;27.63;;
11481;SDS011;5797;51.662;6.748;2023-12-07T09:47:46;68.87;;;27.97;;
11481;SDS011;5797;51.662;6.748;2023-12-07T09:50:16;74.57;;;27.70;;
11481;SDS011;5797;51.662;6.748;2023-12-07T09:52:47;78.73;;;29.33;;
11481;SDS011;5797;51.662;6.748;2023-12-07T09:55:23;77.23;;;26.90;;
11481;SDS011;5797;51.662;6.748;2023-12-07T09:57:52;85.00;;;27.67;;
11481;SDS011;5797;51.662;6.748;2023-12-07T10:00:24;70.50;;;26.77;;
11481;SDS011;5797;51.662;6.748;2023-12-07T10:02:53;73.53;;;25.80;;
11481;SDS011;5797;51.662;6.748;2023-12-07T10:05:21;64.87;;;25.40;;
11481;SDS011;5797;51.662;6.748;2023-12-07T10:07:50;63.73;;;25.47;;
11481;SDS011;5797;51.662;6.748;2023-12-07T10:10:19;63.13;;;25.13;;
11481;SDS011;5797;51.662;6.748;2023-12-07T10:12:51;53.47;;;22.50;;
11481;SDS011;5797;51.662;6.748;2023-12-07T10:15:20;62.10;;;23.80;;
11481;SDS011;5797;51.662;6.748;2023-12-07T10:17:50;51.17;;;22.63;;
11481;SDS011;5797;51.662;6.748;2023-12-07T10:20:19;49.87;;;21.10;;
11481;SDS011;5797;51.662;6.748;2023-12-07T10:23:00;44.00;;;18.80;;
11481;SDS011;5797;51.662;6.748;2023-12-07T10:25:29;39.57;;;17.80;;
11481;SDS011;5797;51.662;6.748;2023-12-07T10:27:59;38.43;;;18.63;;
11481;SDS011;5797;51.662;6.748;2023-12-07T10:30:28;37.77;;;17.00;;
11481;SDS011;5797;51.662;6.748;2023-12-07T10:32:57;33.73;;;17.70;;
11481;SDS011;5797;51.662;6.748;2023-12-07T10:35:25;30.37;;;15.10;;
11481;SDS011;5797;51.662;6.748;2023-12-07T10:37:56;28.70;;;15.00;;
11481;SDS011;5797;51.662;6.748;2023-12-07T10:40:24;24.50;;;13.23;;
11481;SDS011;5797;51.662;6.748;2023-12-07T10:42:54;28.93;;;14.87;;
11481;SDS011;5797;51.662;6.748;2023-12-07T10:45:26;29.30;;;14.20;;
11481;SDS011;5797;51.662;6.748;2023-12-07T10:47:57;34.83;;;13.93;;
11481;SDS011;5797;51.662;6.748;2023-12-07T10:50:32;27.50;;;13.47;;
11481;SDS011;5797;51.662;6.748;2023-12-07T10:53:05;34.57;;;14.27;;
11481;SDS011;5797;51.662;6.748;2023-12-07T10:55:40;31.10;;;14.93;;
11481;SDS011;5797;51.662;6.748;2023-12-07T10:58:11;28.87;;;14.47;;
11481;SDS011;5797;51.662;6.748;2023-12-07T11:00:43;27.07;;;14.73;;
11481;SDS011;5797;51.662;6.748;2023-12-07T11:03:15;22.80;;;12.27;;
11481;SDS011;5797;51.662;6.748;2023-12-07T11:05:45;28.53;;;13.83;;
11481;SDS011;5797;51.662;6.748;2023-12-07T11:08:15;29.00;;;13.63;;
11481;SDS011;5797;51.662;6.748;2023-12-07T11:10:50;29.83;;;12.43;;
11481;SDS011;5797;51.662;6.748;2023-12-07T11:13:27;30.77;;;12.53;;
11481;SDS011;5797;51.662;6.748;2023-12-07T11:15:59;25.07;;;12.83;;
11481;SDS011;5797;51.662;6.748;2023-12-07T11:18:28;23.53;;;12.57;;
11481;SDS011;5797;51.662;6.748;2023-12-07T11:20:57;31.10;;;13.53;;
11481;SDS011;5797;51.662;6.748;2023-12-07T11:23:27;26.07;;;14.20;;
11481;SDS011;5797;51.662;6.748;2023-12-07T11:25:55;28.00;;;13.80;;
11481;SDS011;5797;51.662;6.748;2023-12-07T11:28:34;27.40;;;12.93;;
11481;SDS011;5797;51.662;6.748;2023-12-07T11:31:07;24.60;;;11.73;;
11481;SDS011;5797;51.662;6.748;2023-12-07T11:33:37;29.07;;;13.37;;
11481;SDS011;5797;51.662;6.748;2023-12-07T11:36:06;24.23;;;13.60;;
11481;SDS011;5797;51.662;6.748;2023-12-07T11:38:36;27.60;;;13.87;;
11481;SDS011;5797;51.662;6.748;2023-12-07T11:41:05;23.70;;;13.27;;
11481;SDS011;5797;51.662;6.748;2023-12-07T11:43:37;25.17;;;13.43;;
11481;SDS011;5797;51.662;6.748;2023-12-07T11:46:12;26.63;;;12.93;;
11481;SDS011;5797;51.662;6.748;2023-12-07T11:48:46;31.10;;;14.83;;
11481;SDS011;5797;51.662;6.748;2023-12-07T11:51:15;28.90;;;13.17;;
11481;SDS011;5797;51.662;6.748;2023-12-07T11:53:44;31.27;;;13.40;;
11481;SDS011;5797;51.662;6.748;2023-12-07T11:56:15;28.23;;;13.53;;
11481;SDS011;5797;51.662;6.748;2023-12-07T11:58:48;27.40;;;12.13;;
11481;SDS011;5797;51.662;6.748;2023-12-07T12:01:18;29.80;;;13.77;;
11481;SDS011;5797;51.662;6.748;2023-12-07T12:03:47;23.40;;;10.87;;
11481;SDS011;5797;51.662;6.748;2023-12-07T12:06:16;30.33;;;14.53;;
11481;SDS011;5797;51.662;6.748;2023-12-07T12:08:44;26.13;;;13.07;;
11481;SDS011;5797;51.662;6.748;2023-12-07T12:11:13;26.03;;;13.00;;
11481;SDS011;5797;51.662;6.748;2023-12-07T12:13:42;25.73;;;12.70;;
11481;SDS011;5797;51.662;6.748;2023-12-07T12:16:10;25.13;;;12.77;;
11481;SDS011;5797;51.662;6.748;2023-12-07T12:18:40;25.63;;;12.73;;
11481;SDS011;5797;51.662;6.748;2023-12-07T12:21:09;20.33;;;11.80;;
11481;SDS011;5797;51.662;6.748;2023-12-07T12:23:37;22.17;;;11.40;;
11481;SDS011;5797;51.662;6.748;2023-12-07T12:26:07;23.20;;;11.80;;
11481;SDS011;5797;51.662;6.748;2023-12-07T12:28:37;22.40;;;10.57;;
11481;SDS011;5797;51.662;6.748;2023-12-07T12:31:10;27.97;;;12.67;;
11481;SDS011;5797;51.662;6.748;2023-12-07T12:33:41;25.07;;;12.43;;
11481;SDS011;5797;51.662;6.748;2023-12-07T12:36:09;29.50;;;12.17;;
11481;SDS011;5797;51.662;6.748;2023-12-07T12:38:38;24.43;;;12.13;;
11481;SDS011;5797;51.662;6.748;2023-12-07T12:41:08;23.50;;;12.13;;
11481;SDS011;5797;51.662;6.748;2023-12-07T12:43:37;24.40;;;12.30;;
11481;SDS011;5797;51.662;6.748;2023-12-07T12:46:06;28.53;;;12.77;;
11481;SDS011;5797;51.662;6.748;2023-12-07T12:48:34;23.23;;;12.00;;
11481;SDS011;5797;51.662;6.748;2023-12-07T12:51:11;25.63;;;13.33;;
11481;SDS011;5797;51.662;6.748;2023-12-07T12:53:44;23.30;;;12.57;;
11481;SDS011;5797;51.662;6.748;2023-12-07T12:56:16;23.63;;;11.53;;
11481;SDS011;5797;51.662;6.748;2023-12-07T12:58:44;27.23;;;11.33;;
11481;SDS011;5797;51.662;6.748;2023-12-07T13:01:13;22.23;;;11.57;;
11481;SDS011;5797;51.662;6.748;2023-12-07T13:03:43;23.53;;;11.27;;
11481;SDS011;5797;51.662;6.748;2023-12-07T13:06:14;24.37;;;11.67;;
11481;SDS011;5797;51.662;6.748;2023-12-07T13:08:43;23.30;;;11.00;;
11481;SDS011;5797;51.662;6.748;2023-12-07T13:11:14;25.63;;;11.53;;
11481;SDS011;5797;51.662;6.748;2023-12-07T13:13:43;26.47;;;11.90;;
11481;SDS011;5797;51.662;6.748;2023-12-07T13:16:12;19.57;;;11.63;;
11481;SDS011;5797;51.662;6.748;2023-12-07T13:18:41;21.30;;;11.57;;
11481;SDS011;5797;51.662;6.748;2023-12-07T13:21:10;23.43;;;12.03;;
11481;SDS011;5797;51.662;6.748;2023-12-07T13:23:40;23.57;;;10.87;;
11481;SDS011;5797;51.662;6.748;2023-12-07T13:26:09;18.00;;;9.70;;
11481;SDS011;5797;51.662;6.748;2023-12-07T13:28:37;25.40;;;11.10;;
11481;SDS011;5797;51.662;6.748;2023-12-07T13:31:06;21.70;;;11.40;;
11481;SDS011;5797;51.662;6.748;2023-12-07T13:33:34;20.03;;;11.10;;
11481;SDS011;5797;51.662;6.748;2023-12-07T13:36:08;23.33;;;11.43;;
11481;SDS011;5797;51.662;6.748;2023-12-07T13:38:37;19.03;;;10.23;;
11481;SDS011;5797;51.662;6.748;2023-12-07T13:41:07;23.70;;;11.67;;
11481;SDS011;5797;51.662;6.748;2023-12-07T13:43:36;22.10;;;11.20;;
11481;SDS011;5797;51.662;6.748;2023-12-07T13:46:04;23.47;;;10.97;;
11481;SDS011;5797;51.662;6.748;2023-12-07T13:48:34;20.67;;;11.20;;
11481;SDS011;5797;51.662;6.748;2023-12-07T13:51:02;19.30;;;10.03;;
11481;SDS011;5797;51.662;6.748;2023-12-07T13:53:31;19.20;;;10.10;;
11481;SDS011;5797;51.662;6.748;2023-12-07T13:56:01;21.80;;;11.60;;
11481;SDS011;5797;51.662;6.748;2023-12-07T13:58:32;21.13;;;10.83;;
11481;SDS011;5797;51.662;6.748;2023-12-07T14:01:02;22.27;;;10.50;;
11481;SDS011;5797;51.662;6.748;2023-12-07T14:03:30;19.00;;;10.27;;
11481;SDS011;5797;51.662;6.748;2023-12-07T14:05:59;18.43;;;9.87;;
11481;SDS011;5797;51.662;6.748;2023-12-07T14:08:35;18.77;;;10.90;;
11481;SDS011;5797;51.662;6.748;2023-12-07T14:11:04;18.27;;;10.73;;
11481;SDS011;5797;51.662;6.748;2023-12-07T14:13:33;21.33;;;10.37;;
11481;SDS011;5797;51.662;6.748;2023-12-07T14:16:01;17.50;;;9.17;;
11481;SDS011;5797;51.662;6.748;2023-12-07T14:18:36;17.63;;;10.10;;
11481;SDS011;5797;51.662;6.748;2023-12-07T14:21:04;22.63;;;10.20;;
11481;SDS011;5797;51.662;6.748;2023-12-07T14:23:37;19.40;;;9.90;;
11481;SDS011;5797;51.662;6.748;2023-12-07T14:26:09;20.57;;;9.93;;
11481;SDS011;5797;51.662;6.748;2023-12-07T14:28:38;17.73;;;9.87;;
11481;SDS011;5797;51.662;6.748;2023-12-07T14:31:09;16.60;;;9.07;;
11481;SDS011;5797;51.662;6.748;2023-12-07T14:33:43;16.43;;;8.87;;
11481;SDS011;5797;51.662;6.748;2023-12-07T14:36:12;15.43;;;8.77;;
11481;SDS011;5797;51.662;6.748;2023-12-07T14:38:40;14.50;;;8.63;;
11481;SDS011;5797;51.662;6.748;2023-12-07T14:41:10;16.50;;;8.50;;
11481;SDS011;5797;51.662;6.748;2023-12-07T14:43:40;15.70;;;9.17;;
11481;SDS011;5797;51.662;6.748;2023-12-07T14:46:09;16.63;;;7.93;;
11481;SDS011;5797;51.662;6.748;2023-12-07T14:48:37;13.80;;;8.17;;